Terminal Aerodrome Forecast
Issued by NWS Norman, OK

Home | Current Version | Previous Version | Text Only | Print | Product List | Glossary On
Versions: 1 2 3 4 5 6 7 8 9 10 11 12
000
FTUS44 KOUN 260613 RRA
TAFSPS
TAF
KSPS 260613Z 2606/2706 11009KT P6SM BKN200
     FM261400 18014KT P6SM SCT050 BKN150
     FM262300 15008KT P6SM BKN050
     FM270300 11008KT P6SM OVC025=

USA.gov is the U.S. government's official web portal to all federal, state and local government web resources and services.